Latest Coastal Weather Observations for Coolangatta (QLD)

IDN60701

Issued at 9:55 am EDT Friday 21 November 2014 (issued every 10 minutes, with the page automatically refreshed every 10 minutes)

About coastal observations | Map of coastal stations | Coastal observations for NSW | Marine services | Other Formats
Station Details ID: 040717 Name: COOLANGATTA Lat: -28.17 Lon: 153.51 Height: 4.0 m
Data from the previous 72 hours. | See also: Recent months at Coolangatta (QLD)
Date/Time
EDT
Temp

°C
Wind Pressure Rain
since 9am
mm
Weather Cloud Vis
km
Sea
Height
m
Swell
Dir
 
Speed
knots
Gust
knots
hPa Trend Height
m
Period
s
Dir
21/09:30am 24.0 N 15 20 1015.6 - 0.0 - Partly cloudy 10 - - - -
21/09:00am 25.4 N 16 21 1015.6 - 0.0 - Partly cloudy 10 - - - -
21/08:30am 25.0 N 15 19 1015.7 - 0.0 - Partly cloudy 10 - - - -
21/08:19am 24.7 N 15 19 1015.7 - 0.0 - Partly cloudy 10 - - - -
21/08:00am 24.1 N 13 16 1015.8 - 0.0 - Partly cloudy 10 - - - -
21/07:30am 23.3 N 12 17 1015.6 - 0.0 - Partly cloudy 10 - - - -
21/07:26am 23.2 N 11 15 1015.6 - 0.0 - Partly cloudy 10 - - - -
21/07:11am 22.6 N 13 16 1015.4 - 0.0 - Partly cloudy 10 - - - -
21/07:00am 22.6 N 13 16 1015.3 - 0.0 - Cloudy 10 - - - -
21/06:58am 22.6 N 14 17 1015.3 - 0.0 - Partly cloudy 10 - - - -
21/06:57am 22.6 N 13 17 1015.2 - 0.0 - Partly cloudy 10 - - - -
21/06:30am 22.7 N 13 17 1015.0 - 0.0 - Partly cloudy 10 - - - -
21/06:00am 22.6 N 13 18 1014.9 - 0.0 - Partly cloudy 10 - - - -
21/05:52am 22.6 NNW 14 18 1014.9 - 0.0 - Partly cloudy 10 - - - -
21/05:30am 22.6 N 13 20 1014.7 - 0.0 - Partly cloudy 10 - - - -
21/05:00am 22.5 N 12 18 1014.4 - 0.0 - Partly cloudy 10 - - - -
21/04:30am 22.5 N 13 16 1014.5 - 0.0 - Partly cloudy 10 - - - -
21/04:00am 22.3 N 13 17 1014.3 - 0.0 - Mostly cloudy 10 - - - -
21/03:30am 22.5 N 13 17 1014.5 - 0.0 - Partly cloudy 10 - - - -
21/03:00am 22.6 N 13 16 1014.6 - 0.0 - Partly cloudy 10 - - - -
21/02:30am 22.5 N 13 19 1014.9 - 0.0 - Partly cloudy 10 - - - -
21/02:00am 22.7 N 12 16 1015.0 - 0.0 - Cloudy 10 - - - -
21/01:30am 22.8 N 13 17 1015.2 - 0.0 - Partly cloudy 10 - - - -
21/01:00am 22.7 N 12 15 1015.7 - 0.0 - Cloudy 10 - - - -
21/12:30am 22.7 N 12 16 1016.1 - 0.0 - Partly cloudy 10 - - - -
21/12:00am 23.0 N 11 14 1016.7 - 0.0 - Cloudy 10 - - - -
 
Date/Time
EDT
Temp

°C
Wind Pressure Rain
since 9am
mm
Weather Cloud Vis
km
Sea
Height
m
Swell
Dir
 
Speed
knots
Gust
knots
hPa Trend Height
m
Period
s
Dir
20/11:30pm 23.0 N 14 17 1016.8 - 0.0 - Partly cloudy 10 - - - -
20/11:00pm 22.9 N 14 17 1016.9 - 0.0 - Partly cloudy 10 - - - -
20/10:30pm 23.2 N 13 16 1016.9 - 0.0 - Partly cloudy 10 - - - -
20/10:00pm 23.0 N 12 16 1016.8 - 0.0 - - 10 - - - -
20/09:30pm 23.2 N 14 17 1016.5 - 0.0 - Partly cloudy 10 - - - -
20/09:00pm 23.3 N 13 15 1016.3 - 0.0 - Partly cloudy 10 - - - -
20/08:30pm 23.4 N 12 16 1016.3 - 0.0 - Partly cloudy 10 - - - -
20/08:00pm 23.3 N 12 16 1015.7 - 0.0 - Partly cloudy 10 - - - -
20/07:30pm 23.4 N 12 16 1015.3 - 0.0 - - 10 - - - -
20/07:00pm 23.6 N 14 18 1015.0 - 0.0 - - 10 - - - -
20/06:30pm 24.0 N 14 18 1014.7 - 0.0 - - 10 - - - -
20/06:00pm 24.3 N 14 17 1014.5 - 0.0 - - 10 - - - -
20/05:30pm 24.6 N 14 17 1014.6 - 0.0 - - 10 - - - -
20/05:00pm 25.3 N 13 18 1014.8 - 0.0 - Partly cloudy 10 - - - -
20/04:30pm 25.7 N 12 15 1015.0 - 0.0 - Partly cloudy 10 - - - -
20/04:00pm 26.5 NNE 12 16 1014.9 - 0.0 - - 10 - - - -
20/03:30pm 26.4 NNE 14 18 1015.1 - 0.0 - - 10 - - - -
20/03:00pm 26.1 NNE 14 18 1015.6 - 0.0 - - 10 - - - -
20/02:30pm 26.5 NNE 13 16 1016.0 - 0.0 - - 10 - - - -
20/02:00pm 26.0 NNE 15 19 1016.1 - 0.0 - - 10 - - - -
20/01:30pm 26.7 N 14 17 1016.6 - 0.0 - - 10 - - - -
20/01:00pm 26.8 NNE 12 15 1016.9 - 0.0 - - 10 - - - -
20/12:30pm 26.2 NNE 13 17 1017.3 - 0.0 - Partly cloudy 10 - - - -
20/12:00pm 25.7 NNE 13 17 1017.9 - 0.0 - Partly cloudy 10 - - - -
20/11:30am 25.9 NNE 13 15 1018.3 - 0.0 - - 10 - - - -
20/11:00am 25.6 N 11 14 1018.6 - 0.0 - - 10 - - - -
20/10:30am 25.0 N 10 13 1018.8 - 0.0 - - 10 - - - -
20/10:00am 25.2 N 11 13 1018.6 - 4.4 - - 10 - - - -
20/09:30am 24.4 N 11 14 1018.5 - 4.4 - - 10 - - - -
20/09:00am 24.0 N 9 12 1018.6 - 4.4 - - 10 - - - -
20/08:30am 24.5 N 9 12 1018.3 - 4.4 - - 10 - - - -
20/08:00am 23.7 N 5 8 1018.5 - 4.4 - - 10 - - - -
20/07:30am 22.9 WNW 3 6 1017.9 - 4.4 - - 10 - - - -
20/07:00am 21.4 W 5 6 1017.8 - 4.4 - - 10 - - - -
20/06:30am 20.8 W 4 5 1017.6 - 4.4 - - 10 - - - -
20/06:00am 20.2 NW 4 6 1017.5 - 4.4 - - 10 - - - -
20/05:30am 20.8 NNW 7 8 1016.7 - 4.4 - - 10 - - - -
20/05:00am 20.8 N 7 10 1016.4 - 4.4 - - 10 - - - -
20/04:30am 21.1 N 7 9 1016.5 - 4.4 - - 10 - - - -
20/04:00am 21.2 N 8 9 1016.1 - 4.4 - - 10 - - - -
20/03:30am 21.4 N 7 8 1016.3 - 4.4 - - 10 - - - -
20/03:00am 20.9 N 4 5 1016.3 - 4.4 - - 10 - - - -
20/02:30am 21.3 NW 5 6 1015.9 - 4.4 - - 10 - - - -
20/02:00am 22.1 NNW 6 8 1016.3 - 4.4 - - 10 - - - -
20/01:30am 22.2 NNW 7 10 1016.5 - 4.4 - - 10 - - - -
20/01:00am 22.2 NNW 9 13 1016.9 - 4.4 - Mostly clear 10 - - - -
20/12:30am 22.4 NNW 8 11 1017.2 - 4.4 - Partly cloudy 10 - - - -
20/12:00am 22.3 NNW 7 10 1017.5 - 4.4 - Partly cloudy 10 - - - -
 
Date/Time
EDT
Temp

°C
Wind Pressure Rain
since 9am
mm
Weather Cloud Vis
km
Sea
Height
m
Swell
Dir
 
Speed
knots
Gust
knots
hPa Trend Height
m
Period
s
Dir
19/11:30pm 22.5 N 9 11 1017.2 - 4.4 - Partly cloudy 10 - - - -
19/11:00pm 23.0 N 2 5 1017.9 - 4.4 - Partly cloudy 10 - - - -
19/10:30pm 23.1 NNE 8 11 1017.8 - 4.4 - Partly cloudy 10 - - - -
19/10:00pm 23.5 N 14 18 1017.0 - 4.4 Recent precip. Cloudy 10 - - - -
19/09:30pm 23.8 NE 8 11 1017.4 - 4.2 - Partly cloudy 10 - - - -
19/09:00pm 23.8 ESE 6 9 1017.8 - 4.2 - Partly cloudy 10 - - - -
19/08:30pm 23.7 NE 8 12 1017.3 - 4.2 - - 10 - - - -
19/08:00pm 23.8 E 7 10 1017.1 - 4.2 - Cloudy 10 - - - -
19/07:30pm 23.7 NE 6 8 1016.9 - 4.2 - Partly cloudy 10 - - - -
19/07:00pm 23.7 ENE 5 7 1017.0 - 4.2 - Cloudy 10 - - - -
19/06:30pm 23.6 ENE 10 12 1015.7 - 4.2 - Partly cloudy 10 - - - -
19/06:12pm 23.7 ENE 8 11 1016.0 - 4.2 - Partly cloudy 10 - - - -
19/06:00pm 23.8 ENE 8 12 1016.0 - 4.2 - Partly cloudy 10 - - - -
19/05:31pm 23.9 E 7 11 1015.6 - 4.2 - Partly cloudy 10 - - - -
19/05:30pm 23.8 E 7 11 1015.5 - 4.2 - Partly cloudy 10 - - - -
19/05:00pm 23.7 ESE 4 6 1015.6 - 4.2 - Partly cloudy 10 - - - -
19/04:45pm 23.5 ESE 5 6 1015.9 - 4.2 - Partly cloudy 10 - - - -
19/04:30pm 23.5 E 8 11 1015.7 - 4.0 - Partly cloudy 3 - - - -
19/04:21pm 23.5 E 9 13 1015.5 - 2.0 - Partly cloudy 6 - - - -
19/04:09pm 23.9 ESE 7 11 1015.9 - 0.6 - Partly cloudy 9 - - - -
19/04:03pm 24.0 ESE 8 10 1015.5 - 0.4 - Partly cloudy 10 - - - -
19/04:00pm 24.0 ESE 8 11 1015.6 - 0.4 Rain Cloudy 10 - - - -
19/03:30pm 24.2 ESE 9 12 1015.8 - 0.2 - Partly cloudy 10 - - - -
19/03:11pm 24.6 E 9 13 1015.9 - 0.0 - Partly cloudy 10 - - - -
19/03:00pm 24.9 E 10 12 1016.3 - 0.0 - Partly cloudy 10 - - - -
19/02:57pm 25.1 E 10 12 1016.2 - 0.0 - Partly cloudy 10 - - - -
19/02:30pm 25.6 E 8 11 1016.2 - 0.0 - Partly cloudy 10 - - - -
19/02:26pm 25.5 E 8 11 1016.3 - 0.0 - Partly cloudy 10 - - - -
19/02:00pm 25.8 E 11 13 1016.7 - 0.0 - Partly cloudy 10 - - - -
19/01:30pm 27.3 E 10 14 1017.0 - 0.0 - Partly cloudy 10 - - - -
19/01:00pm 27.6 ENE 11 15 1017.4 - 0.0 - Mostly clear 10 - - - -
19/12:30pm 27.2 ENE 10 13 1017.8 - 0.0 - Partly cloudy 10 - - - -
19/12:00pm 27.1 NE 9 12 1018.0 - 0.0 - - 10 - - - -
19/11:30am 27.0 NE 9 11 1018.3 - 0.0 - - 10 - - - -
19/11:00am 26.3 ENE 9 11 1018.6 - 0.0 - Partly cloudy 10 - - - -
19/10:30am 25.1 ENE 11 14 1018.8 - 0.0 - Partly cloudy 10 - - - -
19/10:00am 25.5 E 12 17 1018.8 - 1.6 - Partly cloudy 10 - - - -
19/09:30am 25.9 ESE 11 14 1018.6 - 1.6 - Partly cloudy 10 - - - -
19/09:00am 25.8 SSE 7 11 1018.5 - 1.6 - Partly cloudy 10 - - - -
19/08:30am 24.3 SSE 7 8 1018.1 - 1.6 - Partly cloudy 10 - - - -
19/08:00am 23.8 S 7 9 1017.9 - 1.6 - Partly cloudy 10 - - - -
19/07:30am 23.6 SSW 5 8 1017.7 - 1.6 - Partly cloudy 10 - - - -
19/07:07am 23.0 SSW 5 7 1017.4 - 1.6 - Partly cloudy 10 - - - -
19/07:00am 23.0 S 5 7 1017.2 - 1.6 - Cloudy 10 - - - -
19/06:30am 22.6 SSW 4 5 1016.7 - 1.6 - Partly cloudy 10 - - - -
19/06:00am 22.4 SSW 4 6 1016.4 - 1.6 - Cloudy 10 - - - -
19/05:30am 22.4 SSW 5 5 1016.1 - 1.4 - Cloudy 10 - - - -
19/05:00am 22.6 S 5 7 1015.6 - 1.4 - Partly cloudy 10 - - - -
19/04:40am 23.1 SSE 5 10 1015.2 - 1.4 - Partly cloudy 10 - - - -
19/04:30am 23.4 SSW 1 4 1015.2 - 1.4 - Partly cloudy 6 - - - -
19/04:09am 23.3 S 5 6 1015.3 - 0.6 - Cloudy 6 - - - -
19/04:00am 23.3 SSE 5 5 1015.3 - 0.2 Rain Mostly cloudy 10 - - - -
19/03:30am 23.6 SSW 4 6 1015.4 - 0.0 - Cloudy 10 - - - -
19/03:00am 23.4 CALM 0 0 1015.5 - 0.0 - Partly cloudy 10 - - - -
19/02:30am 23.7 SE 4 5 1015.9 - 0.0 - Partly cloudy 10 - - - -
19/02:29am 23.8 SE 4 5 1015.9 - 0.0 - Partly cloudy 10 - - - -
19/02:00am 23.7 NE 7 9 1015.9 - 0.0 - Partly cloudy 10 - - - -
19/01:30am 23.5 NE 6 9 1016.2 - 0.0 - Partly cloudy 10 - - - -
19/01:05am 23.7 ENE 7 9 1016.4 - 0.0 - Partly cloudy 10 - - - -
19/01:00am 23.7 ENE 8 9 1016.6 - 0.0 - Cloudy 10 - - - -
19/12:47am 23.7 ENE 9 11 1016.5 - 0.0 - Partly cloudy 10 - - - -
19/12:30am 23.8 ENE 8 11 1016.7 - 0.0 - Partly cloudy 9 - - - -
19/12:00am 23.8 ENE 9 11 1016.9 - 0.0 - Partly cloudy 10 - - - -
 
Date/Time
EDT
Temp

°C
Wind Pressure Rain
since 9am
mm
Weather Cloud Vis
km
Sea
Height
m
Swell
Dir
 
Speed
knots
Gust
knots
hPa Trend Height
m
Period
s
Dir
18/11:30pm 23.8 E 4 6 1017.1 - 0.0 - Partly cloudy 10 - - - -
18/11:14pm 22.9 CALM 0 0 1017.1 - 0.0 - Partly cloudy 8 - - - -
18/11:00pm 22.6 CALM 0 0 1016.8 - 0.0 - Partly cloudy 5 - - - -
18/10:52pm 22.8 CALM 0 3 1016.5 - 0.0 - Partly cloudy 6 - - - -
18/10:30pm 23.1 N 4 5 1016.5 - 0.0 - Partly cloudy 10 - - - -
18/10:00pm 23.3 N 4 6 1016.3 - 0.0 - Mostly clear 10 - - - -
18/09:30pm 23.7 N 7 9 1016.2 - 0.0 - Partly cloudy 10 - - - -
18/09:00pm 23.8 N 7 9 1016.0 - 0.0 - Partly cloudy 10 - - - -
18/08:30pm 24.1 NE 6 9 1016.0 - 0.0 - Cloudy 10 - - - -
18/08:00pm 24.2 NNE 8 11 1015.5 - 0.0 - Cloudy 10 - - - -
18/07:33pm 24.2 NE 7 10 1015.1 - 0.0 - Partly cloudy 10 - - - -
18/07:30pm 24.3 NE 7 11 1015.1 - 0.0 - Partly cloudy 10 - - - -
18/07:07pm 24.3 NE 8 12 1014.6 - 0.0 - Partly cloudy 10 - - - -
18/07:00pm 24.3 NNE 9 12 1014.4 - 0.0 - Cloudy 10 - - - -
18/06:43pm 24.3 NNE 9 12 1014.1 - 0.0 - Partly cloudy 10 - - - -
18/06:30pm 24.2 NNE 9 12 1013.8 - 0.0 - Partly cloudy 10 - - - -
18/06:25pm 24.4 NNE 10 14 1013.7 - 0.0 - Partly cloudy 10 - - - -
18/06:00pm 24.7 NNE 11 16 1013.2 - 0.0 - Partly cloudy 10 - - - -
18/05:30pm 25.3 NNE 11 15 1013.1 - 0.0 - Partly cloudy 10 - - - -
18/05:00pm 25.5 NE 11 14 1013.3 - 0.0 - Partly cloudy 10 - - - -
18/04:56pm 25.2 NE 11 14 1013.4 - 0.0 - Partly cloudy 10 - - - -
18/04:30pm 25.7 NE 9 13 1013.5 - 0.0 - Partly cloudy 10 - - - -
18/04:00pm 25.6 NE 10 14 1013.6 - 0.0 - Cloudy 10 - - - -
18/03:35pm 26.1 NNE 11 15 1013.7 - 0.0 - Partly cloudy 10 - - - -
18/03:30pm 26.5 NNE 11 15 1013.6 - 0.0 - Partly cloudy 10 - - - -
18/03:10pm 26.8 NNE 12 15 1013.9 - 0.0 - Partly cloudy 10 - - - -
18/03:00pm 25.9 NNE 12 15 1014.0 - 0.0 - Partly cloudy 10 - - - -
18/02:30pm 26.9 NNE 9 13 1014.6 - 0.0 - Partly cloudy 10 - - - -
18/02:28pm 27.2 NNE 10 13 1014.6 - 0.0 - Partly cloudy 10 - - - -
18/02:00pm 27.0 NNE 11 15 1014.9 - 0.0 - Partly cloudy 10 - - - -
18/01:30pm 26.1 N 9 13 1015.3 - 0.0 - - 10 - - - -
18/01:00pm 26.7 NNE 9 12 1015.6 - 0.0 - Mostly clear 10 - - - -
18/12:30pm 26.2 NNE 8 11 1016.0 - 0.0 - Partly cloudy 10 - - - -
18/12:00pm 26.5 NE 7 11 1016.4 - 0.0 - Partly cloudy 10 - - - -
18/11:30am 26.6 ENE 7 9 1016.5 - 0.0 - Partly cloudy 10 - - - -
18/11:00am 25.7 ENE 7 9 1016.7 - 0.0 - Partly cloudy 10 - - - -

Other Formats:

Comma delimited format used in spreadsheet applications
http://www.bom.gov.au/fwo/IDN60701/IDN60701.94592.axf

JavaScript Object Notation format (JSON) in row-major order
http://www.bom.gov.au/fwo/IDN60701/IDN60701.94592.json